Miami Shores, Florida
Current Conditions -  °F | °C
As of 4:53 PM on Monday 24 Nov 2014 (Local Time) from KOPF Reporting Station
Clear Clear  
Wind Chill: 83°   Ceiling: Unl
Heat Index: 90°   Visibility: 10mi
Dew Point: 75°   Wind: 13mph
Humidity: 77%   Direction: 170°S
Pressure: 29.98"   Gusts: NA
Location:  25.87°N, 80.19°W
Report Text: KOPF 242153Z 17011KT 10SM CLR 28/24 A2998 RMK AO2 SLP152 T02830239 $
Loading
Personal Weather Stations






























Interactive Weather Map New forecast layout! Learn more

10-Day Weather Forecast

Advertisements
Track Severe Weather on mobile